Search for airport 
image banner adimage banner adimage banner ad
image banner ad

KWJF - General Wm J Fox Airfield

Located in Lancaster, United States

ICAO - WJF, IATA - WJF

Data provided by Airmate  

General information

Coordinates: N34°44'28" W118°13'7"
Elevation is 2351 feet MSL.
Magnetic variation is 15° East
View others Airports in California

Operational data

Special qualification required
Current time UTC:
Current local time:
Weather
METAR: KWJF 291556Z 00000KT 10SM CLR 30/08 A3001 RMK AO2 SLP139 T03000083
TAF: KWJF 291146Z 2912/3012 VRB05KT P6SM SKC FM291900 23010KT P6SM SKC FM292300 23015G23KT P6SM SKC FM300300 23012KT P6SM SKC FM300800 21007KT P6SM SKC
View NOTAMs / SUP AIP / TFR affecting this airport [VIEW]
Communications frequencies: [VIEW]

Runways:

RWY identifierQFULength (ft)Width (ft)SurfaceLDA (ft)
0672°7201150ASPH
24252°7201150ASPH

Airport contact information

Address: Lancaster United States

Other aviation service providers

Flight schools

Barnes Aviation

Barnes Aviation

Satellite view of KWJF